sensor_id;sensor_type;location;lat;lon;timestamp;P1;durP1;ratioP1;P2;durP2;ratioP2
59476;SDS011;45713;49.766;6.592;2022-11-20T00:00:45;18.92;;;10.20;;
59476;SDS011;45713;49.766;6.592;2022-11-20T00:03:12;20.35;;;11.77;;
59476;SDS011;45713;49.766;6.592;2022-11-20T00:05:38;18.65;;;10.95;;
59476;SDS011;45713;49.766;6.592;2022-11-20T00:08:04;21.02;;;11.02;;
59476;SDS011;45713;49.766;6.592;2022-11-20T00:10:30;19.45;;;10.68;;
59476;SDS011;45713;49.766;6.592;2022-11-20T00:12:59;18.85;;;10.20;;
59476;SDS011;45713;49.766;6.592;2022-11-20T00:15:25;17.98;;;10.32;;
59476;SDS011;45713;49.766;6.592;2022-11-20T00:17:51;20.73;;;11.60;;
59476;SDS011;45713;49.766;6.592;2022-11-20T00:20:17;19.45;;;10.80;;
59476;SDS011;45713;49.766;6.592;2022-11-20T00:22:43;23.10;;;12.07;;
59476;SDS011;45713;49.766;6.592;2022-11-20T00:25:09;20.35;;;10.52;;
59476;SDS011;45713;49.766;6.592;2022-11-20T00:27:35;16.35;;;9.75;;
59476;SDS011;45713;49.766;6.592;2022-11-20T00:30:04;18.35;;;10.18;;
59476;SDS011;45713;49.766;6.592;2022-11-20T00:32:30;19.95;;;9.68;;
59476;SDS011;45713;49.766;6.592;2022-11-20T00:34:56;14.68;;;8.82;;
59476;SDS011;45713;49.766;6.592;2022-11-20T00:37:22;13.23;;;8.35;;
59476;SDS011;45713;49.766;6.592;2022-11-20T00:39:48;15.50;;;8.73;;
59476;SDS011;45713;49.766;6.592;2022-11-20T00:42:14;15.07;;;8.88;;
59476;SDS011;45713;49.766;6.592;2022-11-20T00:44:40;15.13;;;8.73;;
59476;SDS011;45713;49.766;6.592;2022-11-20T00:47:06;17.00;;;8.88;;
59476;SDS011;45713;49.766;6.592;2022-11-20T00:49:32;14.52;;;8.35;;
59476;SDS011;45713;49.766;6.592;2022-11-20T00:51:58;13.60;;;8.63;;
59476;SDS011;45713;49.766;6.592;2022-11-20T00:54:24;13.60;;;7.95;;
59476;SDS011;45713;49.766;6.592;2022-11-20T00:56:52;11.80;;;7.32;;
59476;SDS011;45713;49.766;6.592;2022-11-20T00:59:18;9.18;;;6.28;;
59476;SDS011;45713;49.766;6.592;2022-11-20T01:01:44;9.20;;;6.25;;
59476;SDS011;45713;49.766;6.592;2022-11-20T01:04:10;7.25;;;5.05;;
59476;SDS011;45713;49.766;6.592;2022-11-20T01:06:37;8.50;;;5.65;;
59476;SDS011;45713;49.766;6.592;2022-11-20T01:09:05;8.93;;;5.43;;
59476;SDS011;45713;49.766;6.592;2022-11-20T01:11:32;8.57;;;4.85;;
59476;SDS011;45713;49.766;6.592;2022-11-20T01:13:59;7.35;;;5.20;;
59476;SDS011;45713;49.766;6.592;2022-11-20T01:16:33;6.97;;;4.70;;
59476;SDS011;45713;49.766;6.592;2022-11-20T01:19:00;6.70;;;4.40;;
59476;SDS011;45713;49.766;6.592;2022-11-20T01:21:30;5.88;;;4.35;;
59476;SDS011;45713;49.766;6.592;2022-11-20T01:23:57;6.03;;;4.32;;
59476;SDS011;45713;49.766;6.592;2022-11-20T01:26:24;5.93;;;4.13;;
59476;SDS011;45713;49.766;6.592;2022-11-20T01:28:51;5.93;;;3.95;;
59476;SDS011;45713;49.766;6.592;2022-11-20T01:31:21;6.47;;;4.07;;
59476;SDS011;45713;49.766;6.592;2022-11-20T01:33:48;5.25;;;3.60;;
59476;SDS011;45713;49.766;6.592;2022-11-20T01:36:14;6.03;;;3.90;;
59476;SDS011;45713;49.766;6.592;2022-11-20T01:38:41;7.38;;;4.45;;
59476;SDS011;45713;49.766;6.592;2022-11-20T01:41:07;10.63;;;6.07;;
59476;SDS011;45713;49.766;6.592;2022-11-20T01:43:33;11.50;;;7.10;;
59476;SDS011;45713;49.766;6.592;2022-11-20T01:48:42;14.27;;;8.18;;
59476;SDS011;45713;49.766;6.592;2022-11-20T01:51:16;13.38;;;7.50;;
59476;SDS011;45713;49.766;6.592;2022-11-20T01:53:42;12.88;;;7.60;;
59476;SDS011;45713;49.766;6.592;2022-11-20T01:56:09;13.75;;;8.10;;
59476;SDS011;45713;49.766;6.592;2022-11-20T01:58:37;12.43;;;7.90;;
59476;SDS011;45713;49.766;6.592;2022-11-20T02:01:03;13.73;;;8.02;;
59476;SDS011;45713;49.766;6.592;2022-11-20T02:03:30;11.93;;;7.78;;
59476;SDS011;45713;49.766;6.592;2022-11-20T02:08:34;13.27;;;8.48;;
59476;SDS011;45713;49.766;6.592;2022-11-20T02:11:01;14.15;;;8.98;;
59476;SDS011;45713;49.766;6.592;2022-11-20T02:13:27;14.32;;;9.68;;
59476;SDS011;45713;49.766;6.592;2022-11-20T02:16:22;14.60;;;8.43;;
59476;SDS011;45713;49.766;6.592;2022-11-20T02:18:49;12.32;;;8.25;;
59476;SDS011;45713;49.766;6.592;2022-11-20T02:24:09;13.88;;;8.30;;
59476;SDS011;45713;49.766;6.592;2022-11-20T02:27:18;15.02;;;8.45;;
59476;SDS011;45713;49.766;6.592;2022-11-20T02:29:48;13.65;;;8.13;;
59476;SDS011;45713;49.766;6.592;2022-11-20T02:32:31;12.95;;;8.02;;
59476;SDS011;45713;49.766;6.592;2022-11-20T02:35:05;13.70;;;8.40;;
59476;SDS011;45713;49.766;6.592;2022-11-20T02:37:32;11.23;;;7.50;;
59476;SDS011;45713;49.766;6.592;2022-11-20T02:39:59;13.25;;;7.72;;
59476;SDS011;45713;49.766;6.592;2022-11-20T02:42:25;15.10;;;8.50;;
59476;SDS011;45713;49.766;6.592;2022-11-20T02:44:51;13.15;;;7.97;;
59476;SDS011;45713;49.766;6.592;2022-11-20T02:47:17;12.18;;;7.72;;
59476;SDS011;45713;49.766;6.592;2022-11-20T02:49:43;12.52;;;7.88;;
59476;SDS011;45713;49.766;6.592;2022-11-20T02:52:09;14.07;;;7.80;;
59476;SDS011;45713;49.766;6.592;2022-11-20T02:54:35;12.10;;;7.88;;
59476;SDS011;45713;49.766;6.592;2022-11-20T02:57:01;13.60;;;8.10;;
59476;SDS011;45713;49.766;6.592;2022-11-20T02:59:27;13.95;;;8.52;;
59476;SDS011;45713;49.766;6.592;2022-11-20T03:01:53;15.25;;;8.90;;
59476;SDS011;45713;49.766;6.592;2022-11-20T03:04:19;12.75;;;8.40;;
59476;SDS011;45713;49.766;6.592;2022-11-20T03:06:45;15.55;;;9.52;;
59476;SDS011;45713;49.766;6.592;2022-11-20T03:09:11;17.55;;;9.18;;
59476;SDS011;45713;49.766;6.592;2022-11-20T03:11:37;17.23;;;9.25;;
59476;SDS011;45713;49.766;6.592;2022-11-20T03:14:04;14.00;;;9.18;;
59476;SDS011;45713;49.766;6.592;2022-11-20T03:16:31;15.50;;;9.23;;
59476;SDS011;45713;49.766;6.592;2022-11-20T03:18:57;15.13;;;8.73;;
59476;SDS011;45713;49.766;6.592;2022-11-20T03:21:23;16.88;;;9.23;;
59476;SDS011;45713;49.766;6.592;2022-11-20T03:23:49;16.33;;;9.55;;
59476;SDS011;45713;49.766;6.592;2022-11-20T03:26:16;13.63;;;8.35;;
59476;SDS011;45713;49.766;6.592;2022-11-20T03:28:47;11.32;;;7.50;;
59476;SDS011;45713;49.766;6.592;2022-11-20T03:33:39;14.98;;;7.75;;
59476;SDS011;45713;49.766;6.592;2022-11-20T03:36:07;13.23;;;7.47;;
59476;SDS011;45713;49.766;6.592;2022-11-20T03:38:33;15.20;;;8.73;;
59476;SDS011;45713;49.766;6.592;2022-11-20T03:41:09;16.85;;;8.30;;
59476;SDS011;45713;49.766;6.592;2022-11-20T03:43:36;14.13;;;7.95;;
59476;SDS011;45713;49.766;6.592;2022-11-20T03:46:02;11.52;;;6.93;;
59476;SDS011;45713;49.766;6.592;2022-11-20T03:48:29;15.77;;;8.57;;
59476;SDS011;45713;49.766;6.592;2022-11-20T03:53:36;12.07;;;7.30;;
59476;SDS011;45713;49.766;6.592;2022-11-20T03:56:02;12.57;;;8.00;;
59476;SDS011;45713;49.766;6.592;2022-11-20T03:58:28;13.80;;;8.73;;
59476;SDS011;45713;49.766;6.592;2022-11-20T04:00:54;15.18;;;9.02;;
59476;SDS011;45713;49.766;6.592;2022-11-20T04:03:20;14.57;;;8.90;;
59476;SDS011;45713;49.766;6.592;2022-11-20T04:05:46;16.33;;;8.90;;
59476;SDS011;45713;49.766;6.592;2022-11-20T04:08:12;16.77;;;9.00;;
59476;SDS011;45713;49.766;6.592;2022-11-20T04:10:41;14.37;;;8.53;;
59476;SDS011;45713;49.766;6.592;2022-11-20T04:13:07;13.27;;;8.55;;
59476;SDS011;45713;49.766;6.592;2022-11-20T04:15:33;15.77;;;8.50;;
59476;SDS011;45713;49.766;6.592;2022-11-20T04:17:59;13.52;;;8.00;;
59476;SDS011;45713;49.766;6.592;2022-11-20T04:20:25;15.82;;;7.88;;
59476;SDS011;45713;49.766;6.592;2022-11-20T04:22:52;13.63;;;8.57;;
59476;SDS011;45713;49.766;6.592;2022-11-20T04:25:19;12.55;;;7.68;;
59476;SDS011;45713;49.766;6.592;2022-11-20T04:27:45;13.23;;;7.60;;
59476;SDS011;45713;49.766;6.592;2022-11-20T04:30:11;12.80;;;7.35;;
59476;SDS011;45713;49.766;6.592;2022-11-20T04:32:37;11.98;;;7.35;;
59476;SDS011;45713;49.766;6.592;2022-11-20T04:35:04;10.95;;;7.65;;
59476;SDS011;45713;49.766;6.592;2022-11-20T04:37:30;12.93;;;7.25;;
59476;SDS011;45713;49.766;6.592;2022-11-20T04:39:56;13.32;;;6.90;;
59476;SDS011;45713;49.766;6.592;2022-11-20T04:42:21;11.90;;;7.00;;
59476;SDS011;45713;49.766;6.592;2022-11-20T04:44:54;12.05;;;7.32;;
59476;SDS011;45713;49.766;6.592;2022-11-20T04:47:20;12.05;;;7.03;;
59476;SDS011;45713;49.766;6.592;2022-11-20T04:49:46;10.80;;;6.72;;
59476;SDS011;45713;49.766;6.592;2022-11-20T04:52:12;11.70;;;7.10;;
59476;SDS011;45713;49.766;6.592;2022-11-20T04:54:38;11.98;;;6.85;;
59476;SDS011;45713;49.766;6.592;2022-11-20T04:57:04;12.10;;;7.07;;
59476;SDS011;45713;49.766;6.592;2022-11-20T04:59:30;14.52;;;6.50;;
59476;SDS011;45713;49.766;6.592;2022-11-20T05:01:56;10.00;;;6.28;;
59476;SDS011;45713;49.766;6.592;2022-11-20T05:04:22;10.85;;;6.72;;
59476;SDS011;45713;49.766;6.592;2022-11-20T05:06:49;12.23;;;6.85;;
59476;SDS011;45713;49.766;6.592;2022-11-20T05:09:15;11.07;;;6.50;;
59476;SDS011;45713;49.766;6.592;2022-11-20T05:11:41;10.35;;;6.38;;
59476;SDS011;45713;49.766;6.592;2022-11-20T05:14:07;10.20;;;6.80;;
59476;SDS011;45713;49.766;6.592;2022-11-20T05:16:33;12.07;;;6.80;;
59476;SDS011;45713;49.766;6.592;2022-11-20T05:19:01;11.57;;;7.20;;
59476;SDS011;45713;49.766;6.592;2022-11-20T05:21:27;12.07;;;7.05;;
59476;SDS011;45713;49.766;6.592;2022-11-20T05:23:53;11.93;;;7.60;;
59476;SDS011;45713;49.766;6.592;2022-11-20T05:26:20;14.05;;;7.15;;
59476;SDS011;45713;49.766;6.592;2022-11-20T05:28:47;10.70;;;7.32;;
59476;SDS011;45713;49.766;6.592;2022-11-20T05:31:14;18.80;;;7.90;;
59476;SDS011;45713;49.766;6.592;2022-11-20T05:33:41;12.30;;;7.53;;
59476;SDS011;45713;49.766;6.592;2022-11-20T05:36:07;12.77;;;7.63;;
59476;SDS011;45713;49.766;6.592;2022-11-20T05:38:37;13.93;;;8.10;;
59476;SDS011;45713;49.766;6.592;2022-11-20T05:41:13;13.18;;;7.20;;
59476;SDS011;45713;49.766;6.592;2022-11-20T05:43:40;12.57;;;7.40;;
59476;SDS011;45713;49.766;6.592;2022-11-20T05:46:07;14.07;;;8.20;;
59476;SDS011;45713;49.766;6.592;2022-11-20T05:48:33;13.40;;;7.93;;
59476;SDS011;45713;49.766;6.592;2022-11-20T05:51:00;12.95;;;7.95;;
59476;SDS011;45713;49.766;6.592;2022-11-20T05:53:26;14.27;;;8.18;;
59476;SDS011;45713;49.766;6.592;2022-11-20T05:55:56;13.18;;;8.20;;
59476;SDS011;45713;49.766;6.592;2022-11-20T05:58:22;14.00;;;7.43;;
59476;SDS011;45713;49.766;6.592;2022-11-20T06:00:48;14.80;;;8.27;;
59476;SDS011;45713;49.766;6.592;2022-11-20T06:03:14;14.48;;;8.32;;
59476;SDS011;45713;49.766;6.592;2022-11-20T06:05:40;17.25;;;8.95;;
59476;SDS011;45713;49.766;6.592;2022-11-20T06:08:05;13.93;;;8.20;;
59476;SDS011;45713;49.766;6.592;2022-11-20T06:10:31;14.32;;;8.23;;
59476;SDS011;45713;49.766;6.592;2022-11-20T06:12:58;16.25;;;8.57;;
59476;SDS011;45713;49.766;6.592;2022-11-20T06:15:24;15.23;;;8.48;;
59476;SDS011;45713;49.766;6.592;2022-11-20T06:17:56;15.82;;;9.63;;
59476;SDS011;45713;49.766;6.592;2022-11-20T06:20:23;15.80;;;8.23;;
59476;SDS011;45713;49.766;6.592;2022-11-20T06:22:49;15.25;;;8.63;;
59476;SDS011;45713;49.766;6.592;2022-11-20T06:25:15;16.73;;;9.32;;
59476;SDS011;45713;49.766;6.592;2022-11-20T06:27:41;16.77;;;9.18;;
59476;SDS011;45713;49.766;6.592;2022-11-20T06:30:08;14.88;;;8.20;;
59476;SDS011;45713;49.766;6.592;2022-11-20T06:32:34;16.70;;;8.73;;
59476;SDS011;45713;49.766;6.592;2022-11-20T06:35:00;14.93;;;8.55;;
59476;SDS011;45713;49.766;6.592;2022-11-20T06:37:29;16.27;;;8.70;;
59476;SDS011;45713;49.766;6.592;2022-11-20T06:39:55;16.27;;;9.65;;
59476;SDS011;45713;49.766;6.592;2022-11-20T06:42:21;18.42;;;9.77;;
59476;SDS011;45713;49.766;6.592;2022-11-20T06:44:47;19.02;;;9.93;;
59476;SDS011;45713;49.766;6.592;2022-11-20T06:47:13;18.55;;;10.40;;
59476;SDS011;45713;49.766;6.592;2022-11-20T06:49:39;17.48;;;10.25;;
59476;SDS011;45713;49.766;6.592;2022-11-20T06:52:05;16.40;;;9.23;;
59476;SDS011;45713;49.766;6.592;2022-11-20T06:54:31;17.58;;;9.20;;
59476;SDS011;45713;49.766;6.592;2022-11-20T06:56:57;22.38;;;12.23;;
59476;SDS011;45713;49.766;6.592;2022-11-20T06:59:23;21.38;;;12.30;;
59476;SDS011;45713;49.766;6.592;2022-11-20T07:01:49;22.15;;;12.07;;
59476;SDS011;45713;49.766;6.592;2022-11-20T07:04:15;19.63;;;11.07;;
59476;SDS011;45713;49.766;6.592;2022-11-20T07:06:44;22.60;;;12.98;;
59476;SDS011;45713;49.766;6.592;2022-11-20T07:09:10;18.17;;;10.20;;
59476;SDS011;45713;49.766;6.592;2022-11-20T07:11:35;16.70;;;10.57;;
59476;SDS011;45713;49.766;6.592;2022-11-20T07:14:01;21.85;;;11.48;;
59476;SDS011;45713;49.766;6.592;2022-11-20T07:16:27;19.20;;;10.85;;
59476;SDS011;45713;49.766;6.592;2022-11-20T07:18:53;17.73;;;10.18;;
59476;SDS011;45713;49.766;6.592;2022-11-20T07:21:19;18.25;;;10.32;;
59476;SDS011;45713;49.766;6.592;2022-11-20T07:23:46;19.95;;;10.75;;
59476;SDS011;45713;49.766;6.592;2022-11-20T07:26:12;22.67;;;10.70;;
59476;SDS011;45713;49.766;6.592;2022-11-20T07:28:38;19.10;;;10.45;;
59476;SDS011;45713;49.766;6.592;2022-11-20T07:31:04;19.23;;;10.63;;
59476;SDS011;45713;49.766;6.592;2022-11-20T07:33:31;20.33;;;10.63;;
59476;SDS011;45713;49.766;6.592;2022-11-20T07:36:00;16.45;;;10.15;;
59476;SDS011;45713;49.766;6.592;2022-11-20T07:38:26;16.95;;;10.25;;
59476;SDS011;45713;49.766;6.592;2022-11-20T07:40:56;19.38;;;9.73;;
59476;SDS011;45713;49.766;6.592;2022-11-20T07:43:28;19.33;;;11.20;;
59476;SDS011;45713;49.766;6.592;2022-11-20T07:45:55;19.02;;;10.65;;
59476;SDS011;45713;49.766;6.592;2022-11-20T07:48:21;19.23;;;9.85;;
59476;SDS011;45713;49.766;6.592;2022-11-20T07:50:47;18.58;;;10.27;;
59476;SDS011;45713;49.766;6.592;2022-11-20T07:53:13;17.27;;;10.70;;
59476;SDS011;45713;49.766;6.592;2022-11-20T07:55:41;16.38;;;9.18;;
59476;SDS011;45713;49.766;6.592;2022-11-20T07:58:07;22.13;;;9.85;;
59476;SDS011;45713;49.766;6.592;2022-11-20T08:00:33;16.42;;;9.63;;
59476;SDS011;45713;49.766;6.592;2022-11-20T08:03:02;17.80;;;9.80;;
59476;SDS011;45713;49.766;6.592;2022-11-20T08:05:28;18.05;;;9.02;;
59476;SDS011;45713;49.766;6.592;2022-11-20T08:07:54;16.27;;;10.10;;
59476;SDS011;45713;49.766;6.592;2022-11-20T08:10:20;19.55;;;9.90;;
59476;SDS011;45713;49.766;6.592;2022-11-20T08:12:46;17.58;;;9.63;;
59476;SDS011;45713;49.766;6.592;2022-11-20T08:15:31;18.40;;;9.90;;
59476;SDS011;45713;49.766;6.592;2022-11-20T08:18:05;17.48;;;9.13;;
59476;SDS011;45713;49.766;6.592;2022-11-20T08:20:32;18.15;;;9.20;;
59476;SDS011;45713;49.766;6.592;2022-11-20T08:22:59;17.58;;;9.13;;
59476;SDS011;45713;49.766;6.592;2022-11-20T08:25:26;16.80;;;9.55;;
59476;SDS011;45713;49.766;6.592;2022-11-20T08:27:52;17.02;;;9.52;;
59476;SDS011;45713;49.766;6.592;2022-11-20T08:30:18;18.23;;;10.10;;
59476;SDS011;45713;49.766;6.592;2022-11-20T08:32:44;18.90;;;9.77;;
59476;SDS011;45713;49.766;6.592;2022-11-20T08:35:10;20.63;;;11.30;;
59476;SDS011;45713;49.766;6.592;2022-11-20T08:37:36;15.10;;;9.80;;
59476;SDS011;45713;49.766;6.592;2022-11-20T08:40:06;18.88;;;9.63;;
59476;SDS011;45713;49.766;6.592;2022-11-20T08:42:32;15.52;;;8.85;;
59476;SDS011;45713;49.766;6.592;2022-11-20T08:44:58;14.63;;;9.55;;
59476;SDS011;45713;49.766;6.592;2022-11-20T08:47:24;16.25;;;9.23;;
59476;SDS011;45713;49.766;6.592;2022-11-20T08:49:50;15.40;;;9.07;;
59476;SDS011;45713;49.766;6.592;2022-11-20T08:52:16;15.13;;;9.23;;
59476;SDS011;45713;49.766;6.592;2022-11-20T08:54:42;14.88;;;8.85;;
59476;SDS011;45713;49.766;6.592;2022-11-20T08:57:08;15.82;;;9.23;;
59476;SDS011;45713;49.766;6.592;2022-11-20T08:59:34;15.63;;;8.02;;
59476;SDS011;45713;49.766;6.592;2022-11-20T09:02:00;12.88;;;8.43;;
59476;SDS011;45713;49.766;6.592;2022-11-20T09:04:26;12.55;;;8.00;;
59476;SDS011;45713;49.766;6.592;2022-11-20T09:06:52;12.35;;;6.47;;
59476;SDS011;45713;49.766;6.592;2022-11-20T09:09:18;10.85;;;6.93;;
59476;SDS011;45713;49.766;6.592;2022-11-20T09:11:44;11.10;;;6.93;;
59476;SDS011;45713;49.766;6.592;2022-11-20T09:14:10;12.82;;;7.57;;
59476;SDS011;45713;49.766;6.592;2022-11-20T09:16:36;13.57;;;7.05;;
59476;SDS011;45713;49.766;6.592;2022-11-20T09:19:02;10.50;;;6.38;;
59476;SDS011;45713;49.766;6.592;2022-11-20T09:21:28;10.48;;;6.55;;
59476;SDS011;45713;49.766;6.592;2022-11-20T09:23:54;8.95;;;6.32;;
59476;SDS011;45713;49.766;6.592;2022-11-20T09:26:20;8.40;;;5.72;;
59476;SDS011;45713;49.766;6.592;2022-11-20T09:28:46;9.27;;;5.55;;
59476;SDS011;45713;49.766;6.592;2022-11-20T09:31:30;10.63;;;6.70;;
59476;SDS011;45713;49.766;6.592;2022-11-20T09:33:56;9.50;;;6.57;;
59476;SDS011;45713;49.766;6.592;2022-11-20T09:36:22;15.07;;;7.53;;
59476;SDS011;45713;49.766;6.592;2022-11-20T09:38:48;11.27;;;7.30;;
59476;SDS011;45713;49.766;6.592;2022-11-20T09:44:05;17.60;;;8.00;;
59476;SDS011;45713;49.766;6.592;2022-11-20T09:51:57;9.63;;;7.30;;
59476;SDS011;45713;49.766;6.592;2022-11-20T09:54:31;13.95;;;7.28;;
59476;SDS011;45713;49.766;6.592;2022-11-20T10:01:53;15.18;;;7.63;;
59476;SDS011;45713;49.766;6.592;2022-11-20T10:04:20;10.63;;;6.68;;
59476;SDS011;45713;49.766;6.592;2022-11-20T10:06:56;7.50;;;5.72;;
59476;SDS011;45713;49.766;6.592;2022-11-20T10:09:30;9.35;;;5.90;;
59476;SDS011;45713;49.766;6.592;2022-11-20T10:12:11;10.00;;;6.50;;
59476;SDS011;45713;49.766;6.592;2022-11-20T10:14:56;10.70;;;5.80;;
59476;SDS011;45713;49.766;6.592;2022-11-20T10:17:31;9.13;;;5.45;;
59476;SDS011;45713;49.766;6.592;2022-11-20T10:25:05;7.88;;;4.82;;
59476;SDS011;45713;49.766;6.592;2022-11-20T10:27:51;7.43;;;4.10;;
59476;SDS011;45713;49.766;6.592;2022-11-20T10:30:19;7.20;;;4.57;;
59476;SDS011;45713;49.766;6.592;2022-11-20T10:32:47;8.55;;;4.97;;
59476;SDS011;45713;49.766;6.592;2022-11-20T10:35:19;5.72;;;4.35;;
59476;SDS011;45713;49.766;6.592;2022-11-20T10:37:48;7.95;;;4.28;;
59476;SDS011;45713;49.766;6.592;2022-11-20T10:40:18;6.10;;;4.25;;
59476;SDS011;45713;49.766;6.592;2022-11-20T10:42:50;8.02;;;4.32;;
59476;SDS011;45713;49.766;6.592;2022-11-20T10:47:45;7.60;;;5.53;;
59476;SDS011;45713;49.766;6.592;2022-11-20T10:50:13;8.27;;;5.35;;
59476;SDS011;45713;49.766;6.592;2022-11-20T10:55:28;9.27;;;5.68;;
59476;SDS011;45713;49.766;6.592;2022-11-20T10:58:04;7.32;;;5.15;;
59476;SDS011;45713;49.766;6.592;2022-11-20T11:00:34;8.32;;;4.80;;
59476;SDS011;45713;49.766;6.592;2022-11-20T11:03:00;9.27;;;4.68;;
59476;SDS011;45713;49.766;6.592;2022-11-20T11:05:36;7.55;;;4.25;;
59476;SDS011;45713;49.766;6.592;2022-11-20T11:08:03;7.65;;;4.97;;
59476;SDS011;45713;49.766;6.592;2022-11-20T11:12:56;7.60;;;4.20;;
59476;SDS011;45713;49.766;6.592;2022-11-20T11:15:27;7.63;;;4.47;;
59476;SDS011;45713;49.766;6.592;2022-11-20T11:17:53;7.03;;;4.22;;
59476;SDS011;45713;49.766;6.592;2022-11-20T11:20:23;9.13;;;4.82;;
59476;SDS011;45713;49.766;6.592;2022-11-20T11:25:23;8.45;;;4.45;;
59476;SDS011;45713;49.766;6.592;2022-11-20T11:27:49;8.85;;;5.03;;
59476;SDS011;45713;49.766;6.592;2022-11-20T11:30:16;9.32;;;5.25;;
59476;SDS011;45713;49.766;6.592;2022-11-20T11:32:43;8.25;;;3.75;;
59476;SDS011;45713;49.766;6.592;2022-11-20T11:35:26;7.00;;;3.25;;
59476;SDS011;45713;49.766;6.592;2022-11-20T11:37:53;5.70;;;3.45;;
59476;SDS011;45713;49.766;6.592;2022-11-20T11:40:20;5.15;;;3.40;;
59476;SDS011;45713;49.766;6.592;2022-11-20T11:42:50;6.00;;;3.60;;
59476;SDS011;45713;49.766;6.592;2022-11-20T11:45:16;4.85;;;3.13;;
59476;SDS011;45713;49.766;6.592;2022-11-20T11:52:36;5.93;;;3.17;;
59476;SDS011;45713;49.766;6.592;2022-11-20T11:55:07;4.65;;;3.20;;
59476;SDS011;45713;49.766;6.592;2022-11-20T12:00:12;7.03;;;3.88;;
59476;SDS011;45713;49.766;6.592;2022-11-20T12:05:20;5.00;;;3.13;;
59476;SDS011;45713;49.766;6.592;2022-11-20T12:07:50;6.00;;;3.53;;
59476;SDS011;45713;49.766;6.592;2022-11-20T12:10:23;6.88;;;3.55;;
59476;SDS011;45713;49.766;6.592;2022-11-20T12:12:50;7.00;;;3.15;;
59476;SDS011;45713;49.766;6.592;2022-11-20T12:15:23;6.32;;;3.40;;
59476;SDS011;45713;49.766;6.592;2022-11-20T12:17:51;5.15;;;3.00;;
59476;SDS011;45713;49.766;6.592;2022-11-20T12:20:17;6.85;;;3.55;;
59476;SDS011;45713;49.766;6.592;2022-11-20T12:22:59;5.53;;;3.42;;
59476;SDS011;45713;49.766;6.592;2022-11-20T12:25:28;5.70;;;3.40;;
59476;SDS011;45713;49.766;6.592;2022-11-20T12:30:22;4.93;;;3.28;;
59476;SDS011;45713;49.766;6.592;2022-11-20T12:40:47;4.10;;;3.58;;
59476;SDS011;45713;49.766;6.592;2022-11-20T12:43:19;6.28;;;3.58;;
59476;SDS011;45713;49.766;6.592;2022-11-20T12:46:08;6.37;;;3.43;;
59476;SDS011;45713;49.766;6.592;2022-11-20T12:48:41;5.50;;;3.60;;
59476;SDS011;45713;49.766;6.592;2022-11-20T12:51:30;7.00;;;3.60;;
59476;SDS011;45713;49.766;6.592;2022-11-20T12:56:46;4.43;;;3.20;;
59476;SDS011;45713;49.766;6.592;2022-11-20T13:07:12;6.22;;;3.30;;
59476;SDS011;45713;49.766;6.592;2022-11-20T13:09:40;5.10;;;3.40;;
59476;SDS011;45713;49.766;6.592;2022-11-20T13:14:40;4.13;;;2.65;;
59476;SDS011;45713;49.766;6.592;2022-11-20T13:19:54;4.60;;;3.03;;
59476;SDS011;45713;49.766;6.592;2022-11-20T13:22:27;5.82;;;3.22;;
59476;SDS011;45713;49.766;6.592;2022-11-20T13:24:54;4.57;;;3.13;;
59476;SDS011;45713;49.766;6.592;2022-11-20T13:27:23;5.07;;;2.85;;
59476;SDS011;45713;49.766;6.592;2022-11-20T13:32:34;5.70;;;3.00;;
59476;SDS011;45713;49.766;6.592;2022-11-20T13:35:01;5.10;;;3.10;;
59476;SDS011;45713;49.766;6.592;2022-11-20T13:47:49;6.60;;;3.00;;
59476;SDS011;45713;49.766;6.592;2022-11-20T13:50:15;6.30;;;3.10;;
59476;SDS011;45713;49.766;6.592;2022-11-20T14:00:21;5.70;;;3.33;;
59476;SDS011;45713;49.766;6.592;2022-11-20T14:05:39;6.53;;;3.58;;
59476;SDS011;45713;49.766;6.592;2022-11-20T14:08:06;5.70;;;2.88;;
59476;SDS011;45713;49.766;6.592;2022-11-20T14:10:37;4.43;;;2.90;;
59476;SDS011;45713;49.766;6.592;2022-11-20T14:13:37;5.72;;;3.20;;
59476;SDS011;45713;49.766;6.592;2022-11-20T14:15:56;5.45;;;2.65;;
59476;SDS011;45713;49.766;6.592;2022-11-20T14:18:25;4.43;;;2.55;;
59476;SDS011;45713;49.766;6.592;2022-11-20T14:20:51;4.65;;;2.60;;
59476;SDS011;45713;49.766;6.592;2022-11-20T14:23:27;4.38;;;2.60;;
59476;SDS011;45713;49.766;6.592;2022-11-20T14:25:53;5.30;;;3.00;;
59476;SDS011;45713;49.766;6.592;2022-11-20T14:28:21;4.75;;;2.78;;
59476;SDS011;45713;49.766;6.592;2022-11-20T14:30:50;5.18;;;3.38;;
59476;SDS011;45713;49.766;6.592;2022-11-20T14:33:16;4.00;;;2.80;;
59476;SDS011;45713;49.766;6.592;2022-11-20T14:35:47;3.10;;;2.67;;
59476;SDS011;45713;49.766;6.592;2022-11-20T14:38:14;3.95;;;3.00;;
59476;SDS011;45713;49.766;6.592;2022-11-20T14:40:40;7.78;;;3.45;;
59476;SDS011;45713;49.766;6.592;2022-11-20T14:48:23;7.22;;;2.97;;
59476;SDS011;45713;49.766;6.592;2022-11-20T14:50:51;5.05;;;3.15;;
59476;SDS011;45713;49.766;6.592;2022-11-20T14:53:22;5.38;;;3.00;;
59476;SDS011;45713;49.766;6.592;2022-11-20T14:55:53;4.18;;;2.90;;
59476;SDS011;45713;49.766;6.592;2022-11-20T14:58:20;4.53;;;2.88;;
59476;SDS011;45713;49.766;6.592;2022-11-20T15:01:03;6.45;;;2.92;;
59476;SDS011;45713;49.766;6.592;2022-11-20T15:05:59;5.07;;;3.63;;
59476;SDS011;45713;49.766;6.592;2022-11-20T15:08:25;5.53;;;3.38;;
59476;SDS011;45713;49.766;6.592;2022-11-20T15:10:51;4.65;;;3.00;;
59476;SDS011;45713;49.766;6.592;2022-11-20T15:13:37;4.72;;;2.60;;
59476;SDS011;45713;49.766;6.592;2022-11-20T15:16:11;7.13;;;3.30;;
59476;SDS011;45713;49.766;6.592;2022-11-20T15:18:39;7.22;;;3.08;;
59476;SDS011;45713;49.766;6.592;2022-11-20T15:21:24;4.13;;;2.67;;
59476;SDS011;45713;49.766;6.592;2022-11-20T15:23:50;5.47;;;3.05;;
59476;SDS011;45713;49.766;6.592;2022-11-20T15:26:19;6.75;;;2.78;;
59476;SDS011;45713;49.766;6.592;2022-11-20T15:28:46;4.78;;;2.60;;
59476;SDS011;45713;49.766;6.592;2022-11-20T15:31:15;4.00;;;2.80;;
59476;SDS011;45713;49.766;6.592;2022-11-20T15:33:42;5.88;;;3.47;;
59476;SDS011;45713;49.766;6.592;2022-11-20T15:36:08;40.50;;;19.10;;
59476;SDS011;45713;49.766;6.592;2022-11-20T15:38:35;7.03;;;5.25;;
59476;SDS011;45713;49.766;6.592;2022-11-20T15:41:01;15.32;;;10.52;;
59476;SDS011;45713;49.766;6.592;2022-11-20T15:43:27;9.05;;;6.82;;
59476;SDS011;45713;49.766;6.592;2022-11-20T15:48:23;7.97;;;6.22;;
59476;SDS011;45713;49.766;6.592;2022-11-20T15:50:52;9.45;;;4.93;;
59476;SDS011;45713;49.766;6.592;2022-11-20T15:53:18;7.70;;;3.55;;
59476;SDS011;45713;49.766;6.592;2022-11-20T15:55:44;12.18;;;9.13;;
59476;SDS011;45713;49.766;6.592;2022-11-20T15:58:10;5.80;;;4.35;;
59476;SDS011;45713;49.766;6.592;2022-11-20T16:00:36;7.88;;;5.40;;
59476;SDS011;45713;49.766;6.592;2022-11-20T16:03:02;23.23;;;19.83;;
59476;SDS011;45713;49.766;6.592;2022-11-20T16:05:29;8.45;;;5.63;;
59476;SDS011;45713;49.766;6.592;2022-11-20T16:07:55;10.60;;;7.55;;
59476;SDS011;45713;49.766;6.592;2022-11-20T16:10:21;8.93;;;6.85;;
59476;SDS011;45713;49.766;6.592;2022-11-20T16:12:47;4.97;;;4.10;;
59476;SDS011;45713;49.766;6.592;2022-11-20T16:15:31;4.97;;;3.47;;
59476;SDS011;45713;49.766;6.592;2022-11-20T16:18:10;4.72;;;3.38;;
59476;SDS011;45713;49.766;6.592;2022-11-20T16:20:36;6.40;;;3.25;;
59476;SDS011;45713;49.766;6.592;2022-11-20T16:23:03;4.65;;;3.55;;
59476;SDS011;45713;49.766;6.592;2022-11-20T16:25:29;6.68;;;3.40;;
59476;SDS011;45713;49.766;6.592;2022-11-20T16:27:55;10.43;;;3.65;;
59476;SDS011;45713;49.766;6.592;2022-11-20T16:30:21;5.07;;;3.03;;
59476;SDS011;45713;49.766;6.592;2022-11-20T16:32:47;7.55;;;5.00;;
59476;SDS011;45713;49.766;6.592;2022-11-20T16:35:13;9.60;;;6.50;;